Sylvan Beach, Michigan
Current Conditions -  °F | °C
As of 9:55 PM on Friday 24 Oct 2014 (Local Time) from KMKG Reporting Station
Haze Haze  
Wind Chill: 46°   Ceiling: 9500
Heat Index: 46°   Visibility: 5mi
Dew Point: 44°   Wind: 3mph
Humidity: 93%   Direction: 140°SE
Pressure: 29.95"   Gusts: NA
Location:  43.3707°N, 86.4217°W
Report Text: KMKG 250155Z 14003KT 5SM R32/1200VP6000FT BR FEW008 BKN095 08/07 A2995 RMK AO2 SLP146 T00780067
Loading
Personal Weather Stations






























Interactive Weather Map
Tropical Storm Tracking
New forecast layout! Learn more

10-Day Weather Forecast

Advertisements
Track Severe Weather on mobile